Pagrindinis puslapis
METAR-TAF:

METAR-TAF

Oro uostai :

Bahreino tarptautinis oro uostas

Bahreinas, Bahreinas

platuma: 26-16N, ilguma: 050-39E, Aukštis: 2 m

Dabartinis oras

Ataskaita buvo paskelbta 37 minutes, ne 08:30 UTC
Vėjas 16 kt iš Šiaurės
Temperatūra 22°C
Drėgmė 53%
Slėgis 1020 hPa
Matomumas 10 km arba daugiau
Mažai debesys ne aukštis 2500 ft

METAR: OBBI 200830Z 36016KT 9999 FEW025 22/12 Q1020 NOSIG

Laikas: 12:07 (09:07 UTC)

Prognozė

Ataskaita buvo paskelbta 4 valandos ir 7 minutes, ne 05:00 UTC
Prognozė galioja nuo 20 metu 06 UTC su 21 metu 12 UTC
Vėjas 17 kt iš Šiaurės/Šiaurės Vakarų
Matomumas: 8000 m
Išsisklaidę debesys ne aukštis 2500 ft
Tapsmas
nuo 20 metu 19 UTC su 20 metu 21 UTC
Vėjas 7 kt iš Šiaurės/Šiaurės Vakarų

TAF: OBBI 200500Z 2006/2112 33017KT 8000 SCT025 BECMG 2019/2021 34007KT

Orai ataskaitas ir orų prognozės (METAR, TAF).

turimą stotys yra geltonos ir raudonos taškus žemėlapyje.

Perkelti pele per norėdami pamatyti stoties vardą.

Tada spustelėkite, norėdami matyti oro stebėjimo ir prognozės.

Norėdami pakeisti žemėlapį: spustelėkite ant žalios mygtukų su juodo kryžiaus žemyn,; žalią mygtuką su brūkšneliu, jei norite nutolinti; arba žalių rodyklių gretimoms žemėlapius.


METAR-TAF: